createdAt,value
2023-04-04T00:02:50.435Z,2.67
2023-04-04T00:12:51.985Z,2.90
2023-04-04T00:22:53.357Z,2.70
2023-04-04T00:32:55.741Z,3.00
2023-04-04T00:43:00.401Z,2.20
2023-04-04T00:53:01.827Z,2.50
2023-04-04T01:03:05.708Z,2.60
2023-04-04T01:13:07.318Z,2.60
2023-04-04T01:23:09.986Z,2.20
2023-04-04T01:33:25.813Z,2.28
2023-04-04T01:43:27.603Z,2.50
2023-04-04T01:53:29.178Z,2.57
2023-04-04T02:03:30.706Z,2.78
2023-04-04T02:13:32.261Z,2.60
2023-04-04T02:23:33.867Z,2.80
2023-04-04T02:33:35.617Z,3.10
2023-04-04T02:43:36.993Z,3.20
2023-04-04T02:53:38.484Z,2.50
2023-04-04T03:03:40.065Z,3.28
2023-04-04T03:13:41.499Z,2.78
2023-04-04T03:23:43.047Z,3.00
2023-04-04T03:33:44.873Z,2.73
2023-04-04T03:43:46.306Z,3.63
2023-04-04T03:53:47.751Z,3.00
2023-04-04T04:03:49.198Z,2.60
2023-04-04T04:13:50.877Z,3.70
2023-04-04T04:23:52.330Z,3.60
2023-04-04T04:33:53.837Z,4.83
2023-04-04T04:43:58.124Z,4.28
2023-04-04T04:53:59.566Z,6.63
2023-04-04T05:04:01.315Z,4.13
2023-04-04T05:14:02.827Z,3.77
2023-04-04T05:24:04.355Z,6.88
2023-04-04T05:34:08.514Z,4.60
2023-04-04T05:44:10.012Z,4.10
2023-04-04T05:54:11.401Z,4.05
2023-04-04T06:04:12.959Z,5.40
2023-04-04T06:14:15.343Z,3.37
2023-04-04T06:24:16.841Z,3.90
2023-04-04T06:34:18.205Z,3.28
2023-04-04T06:44:19.642Z,4.40
2023-04-04T06:54:21.211Z,4.40
2023-04-04T07:04:22.655Z,5.15
2023-04-04T07:14:25.441Z,5.80
2023-04-04T07:24:27.209Z,5.17
2023-04-04T07:34:29.551Z,2.80
2023-04-04T07:44:31.025Z,4.30
2023-04-04T07:54:32.593Z,2.20
2023-04-04T08:04:34.009Z,1.60
2023-04-04T08:14:35.543Z,1.55
2023-04-04T08:24:36.923Z,3.53
2023-04-04T08:34:38.446Z,2.60
2023-04-04T08:44:43.752Z,1.63
2023-04-04T08:54:47.345Z,2.47
2023-04-04T09:05:02.436Z,1.77
2023-04-04T09:15:07.128Z,1.65
2023-04-04T09:25:08.945Z,1.93
2023-04-04T09:35:13.834Z,2.20
2023-04-04T09:45:22.298Z,1.65
2023-04-04T09:55:36.381Z,1.90
2023-04-04T10:05:38.512Z,1.70
2023-04-04T10:15:44.236Z,1.53
2023-04-04T10:25:46.083Z,1.35
2023-04-04T10:35:54.152Z,1.77
2023-04-04T10:46:06.687Z,1.50
2023-04-04T10:56:09.305Z,1.50
2023-04-04T11:06:16.518Z,1.23
2023-04-04T11:16:19.206Z,1.43
2023-04-04T11:26:30.278Z,0.75
2023-04-04T11:36:37.603Z,1.17
2023-04-04T11:46:39.394Z,1.53
2023-04-04T11:56:44.764Z,1.10
2023-04-04T12:06:54.090Z,1.85
2023-04-04T12:16:56.648Z,2.20
2023-04-04T12:26:58.489Z,1.97
2023-04-04T12:37:01.793Z,1.63
2023-04-04T12:47:06.221Z,1.47
2023-04-04T12:57:08.237Z,2.17
2023-04-04T13:07:46.359Z,1.98
2023-04-04T13:17:50.151Z,1.80
2023-04-04T13:27:51.659Z,2.20
2023-04-04T13:37:53.216Z,1.80
2023-04-04T13:47:54.789Z,2.08
2023-04-04T13:57:56.280Z,2.20
2023-04-04T14:07:57.751Z,2.27
2023-04-04T14:17:59.615Z,1.25
2023-04-04T14:28:01.333Z,2.30
2023-04-04T14:38:03.838Z,2.23
2023-04-04T14:48:05.819Z,2.35
2023-04-04T14:58:07.333Z,1.52
2023-04-04T15:08:08.881Z,2.10
2023-04-04T15:18:10.277Z,2.40
2023-04-04T15:28:11.768Z,1.90
2023-04-04T15:38:13.095Z,2.30
2023-04-04T15:48:14.622Z,2.20
2023-04-04T15:58:16.113Z,1.52
2023-04-04T16:08:18.254Z,1.97
2023-04-04T16:18:19.671Z,2.60
2023-04-04T16:28:21.738Z,2.72
2023-04-04T16:38:23.135Z,1.40
2023-04-04T16:48:24.488Z,2.00
2023-04-04T16:58:26.073Z,2.47
2023-04-04T17:08:28.059Z,2.70
2023-04-04T17:18:29.484Z,2.30
2023-04-04T17:28:30.997Z,2.57
2023-04-04T17:38:32.601Z,2.60
2023-04-04T17:48:36.880Z,2.20
2023-04-04T17:58:38.507Z,1.87
2023-04-04T18:08:41.478Z,2.17
2023-04-04T18:18:43.121Z,2.72
2023-04-04T18:28:44.456Z,2.40
2023-04-04T18:38:46.840Z,2.17
2023-04-04T18:48:48.299Z,2.40
2023-04-04T18:58:49.815Z,3.10
2023-04-04T19:08:54.324Z,2.73
2023-04-04T19:18:55.886Z,2.03
2023-04-04T19:28:58.666Z,3.10
2023-04-04T19:39:00.268Z,3.07
2023-04-04T19:49:09.096Z,3.38
2023-04-04T19:59:49.699Z,3.30
2023-04-04T20:09:52.044Z,2.10
2023-04-04T20:19:53.708Z,2.97
2023-04-04T20:29:55.244Z,3.22
2023-04-04T20:39:58.813Z,3.53
2023-04-04T20:50:00.435Z,4.60
2023-04-04T21:00:04.592Z,3.00
2023-04-04T21:10:43.672Z,3.10
2023-04-04T21:20:44.982Z,3.03
2023-04-04T21:30:46.702Z,3.03
2023-04-04T21:40:48.238Z,3.90
2023-04-04T21:50:50.452Z,3.80
2023-04-04T22:00:52.104Z,3.13
2023-04-04T22:10:53.525Z,3.25
2023-04-04T22:21:02.844Z,2.97
2023-04-04T22:31:06.074Z,3.47
2023-04-04T22:41:07.582Z,4.55
2023-04-04T22:51:09.058Z,4.13
2023-04-04T23:01:10.742Z,3.80
2023-04-04T23:11:12.114Z,4.32
2023-04-04T23:21:13.670Z,4.00
2023-04-04T23:31:16.288Z,4.10
2023-04-04T23:41:18.252Z,4.17
2023-04-04T23:51:19.838Z,3.92
